Time,TemperatureF,DewpointF,PressureIn,WindDirection,WindDirectionDegrees,WindSpeedMPH,WindSpeedGustMPH,Humidity,HourlyPrecipIn,Conditions,Clouds,dailyrainin,SolarRadiationWatts/m^2,SoftwareType,DateUTC
2013-02-21 01:00:00,14.0,9.0,-100.00,SSW,202,8.0,-999.0,79,-99.99,,,-99.99,0.000000,,2013-02-21 06:00:00,
2013-02-21 01:31:00,14.0,9.0,-100.00,SSW,202,8.0,-999.0,79,-99.99,,,-99.99,0.000000,,2013-02-21 06:31:00,
2013-02-21 01:41:00,14.0,9.0,-100.00,SSW,202,8.0,-999.0,79,-99.99,,,-99.99,0.000000,,2013-02-21 06:41:00,
2013-02-21 01:51:00,14.0,9.0,-100.00,SSW,202,8.0,-999.0,79,-99.99,,,-99.99,0.000000,,2013-02-21 06:51:00,
2013-02-21 02:00:00,15.0,10.0,-100.00,South,180,6.0,-999.0,80,-99.99,,,-99.99,0.000000,,2013-02-21 07:00:00,
2013-02-21 02:42:00,15.0,10.0,-100.00,South,180,6.0,-999.0,80,-99.99,,,-99.99,0.000000,,2013-02-21 07:42:00,
2013-02-21 02:52:00,15.0,10.0,-100.00,South,180,6.0,-999.0,80,-99.99,,,-99.99,0.000000,,2013-02-21 07:52:00,
2013-02-21 03:00:00,16.0,11.0,-100.00,WNW,292,5.0,-999.0,81,-99.99,,,-99.99,0.000000,,2013-02-21 08:00:00,
2013-02-21 03:42:00,16.0,11.0,-100.00,WNW,292,5.0,-999.0,81,-99.99,,,-99.99,0.000000,,2013-02-21 08:42:00,
2013-02-21 03:52:00,16.0,11.0,-100.00,WNW,292,5.0,-999.0,81,-99.99,,,-99.99,0.000000,,2013-02-21 08:52:00,
2013-02-21 05:00:00,18.0,13.0,-100.00,ESE,112,7.0,-999.0,80,-99.99,,,-99.99,0.000000,,2013-02-21 10:00:00,
2013-02-21 05:31:00,18.0,13.0,-100.00,ESE,112,7.0,-999.0,80,-99.99,,,-99.99,0.000000,,2013-02-21 10:31:00,
2013-02-21 05:41:00,18.0,13.0,-100.00,ESE,112,7.0,-999.0,80,-99.99,,,-99.99,0.000000,,2013-02-21 10:41:00,
2013-02-21 05:51:00,18.0,13.0,-100.00,ESE,112,7.0,-999.0,80,-99.99,,,-99.99,0.000000,,2013-02-21 10:51:00,
2013-02-21 10:00:00,20.0,16.0,-100.00,East,90,9.0,-999.0,84,-99.99,,,-99.99,92.800003,,2013-02-21 15:00:00,
2013-02-21 10:42:00,20.0,16.0,-100.00,East,90,9.0,-999.0,84,-99.99,,,-99.99,92.800003,,2013-02-21 15:42:00,
2013-02-21 10:52:00,20.0,16.0,-100.00,East,90,9.0,-999.0,84,-99.99,,,-99.99,92.800003,,2013-02-21 15:52:00,
2013-02-21 11:00:00,21.0,17.0,-100.00,East,90,8.0,-999.0,83,-99.99,,,-99.99,151.960007,,2013-02-21 16:00:00,
2013-02-21 11:42:00,21.0,17.0,-100.00,East,90,8.0,-999.0,83,-99.99,,,-99.99,151.960007,,2013-02-21 16:42:00,
2013-02-21 11:52:00,21.0,17.0,-100.00,East,90,8.0,-999.0,83,-99.99,,,-99.99,151.960007,,2013-02-21 16:52:00,
2013-02-21 12:00:00,22.0,17.0,-100.00,NE,45,6.0,-999.0,80,-99.99,,,-99.99,189.080002,,2013-02-21 17:00:00,
2013-02-21 12:42:00,22.0,17.0,-100.00,NE,45,6.0,-999.0,80,-99.99,,,-99.99,189.080002,,2013-02-21 17:42:00,
2013-02-21 12:52:00,22.0,17.0,-100.00,NE,45,6.0,-999.0,80,-99.99,,,-99.99,189.080002,,2013-02-21 17:52:00,
2013-02-21 14:00:00,24.0,18.0,-100.00,SE,135,6.0,-999.0,76,-99.99,,,-99.99,232.000000,,2013-02-21 19:00:00,
2013-02-21 14:42:00,24.0,18.0,-100.00,SE,135,6.0,-999.0,76,-99.99,,,-99.99,232.000000,,2013-02-21 19:42:00,
2013-02-21 14:52:00,24.0,18.0,-100.00,SE,135,6.0,-999.0,76,-99.99,,,-99.99,232.000000,,2013-02-21 19:52:00,
2013-02-21 16:00:00,24.0,19.0,-100.00,East,90,6.0,-999.0,79,-99.99,,,-99.99,122.959999,,2013-02-21 21:00:00,
2013-02-21 16:42:00,24.0,19.0,-100.00,East,90,6.0,-999.0,79,-99.99,,,-99.99,122.959999,,2013-02-21 21:42:00,
2013-02-21 16:52:00,24.0,19.0,-100.00,East,90,6.0,-999.0,79,-99.99,,,-99.99,122.959999,,2013-02-21 21:52:00,
2013-02-21 17:00:00,23.0,19.0,-100.00,ENE,67,6.0,-999.0,82,-99.99,,,-99.99,55.680000,,2013-02-21 22:00:00,
2013-02-21 17:42:00,23.0,19.0,-100.00,ENE,67,6.0,-999.0,82,-99.99,,,-99.99,55.680000,,2013-02-21 22:42:00,
2013-02-21 17:52:00,23.0,19.0,-100.00,ENE,67,6.0,-999.0,82,-99.99,,,-99.99,55.680000,,2013-02-21 22:52:00,
2013-02-21 18:00:00,23.0,19.0,-100.00,NE,45,5.0,-999.0,85,-99.99,,,-99.99,18.559999,,2013-02-21 23:00:00,
2013-02-21 18:42:00,23.0,19.0,-100.00,NE,45,5.0,-999.0,85,-99.99,,,-99.99,18.559999,,2013-02-21 23:42:00,
2013-02-21 18:52:00,23.0,19.0,-100.00,NE,45,5.0,-999.0,85,-99.99,,,-99.99,18.559999,,2013-02-21 23:52:00,
2013-02-21 19:00:00,22.0,19.0,-100.00,ENE,67,7.0,-999.0,86,-99.99,,,-99.99,1.160000,,2013-02-22 00:00:00,
2013-02-21 19:42:00,22.0,19.0,-100.00,ENE,67,7.0,-999.0,86,-99.99,,,-99.99,1.160000,,2013-02-22 00:42:00,
2013-02-21 19:52:00,22.0,19.0,-100.00,ENE,67,7.0,-999.0,86,-99.99,,,-99.99,1.160000,,2013-02-22 00:52:00,
2013-02-21 20:00:00,21.0,18.0,-100.00,ENE,67,7.0,-999.0,87,-99.99,,,-99.99,0.000000,,2013-02-22 01:00:00,
2013-02-21 20:42:00,21.0,18.0,-100.00,ENE,67,7.0,-999.0,87,-99.99,,,-99.99,0.000000,,2013-02-22 01:42:00,
2013-02-21 20:52:00,21.0,18.0,-100.00,ENE,67,7.0,-999.0,87,-99.99,,,-99.99,0.000000,,2013-02-22 01:52:00,
2013-02-21 21:00:00,20.0,17.0,-100.00,ENE,67,6.0,-999.0,87,-99.99,,,-99.99,0.000000,,2013-02-22 02:00:00,
2013-02-21 21:42:00,20.0,17.0,-100.00,ENE,67,6.0,-999.0,87,-99.99,,,-99.99,0.000000,,2013-02-22 02:42:00,
2013-02-21 21:52:00,20.0,17.0,-100.00,ENE,67,6.0,-999.0,87,-99.99,,,-99.99,0.000000,,2013-02-22 02:52:00,
2013-02-21 22:42:00,19.0,16.0,-100.00,ENE,67,6.0,-999.0,87,-99.99,,,-99.99,0.000000,,2013-02-22 03:42:00,
2013-02-21 22:52:00,19.0,16.0,-100.00,ENE,67,6.0,-999.0,87,-99.99,,,-99.99,0.000000,,2013-02-22 03:52:00,
2013-02-21 23:00:00,19.0,16.0,-100.00,ENE,67,8.0,-999.0,87,-99.99,,,-99.99,0.000000,,2013-02-22 04:00:00,
2013-02-21 23:42:00,19.0,16.0,-100.00,ENE,67,8.0,-999.0,87,-99.99,,,-99.99,0.000000,,2013-02-22 04:42:00,
2013-02-21 23:52:00,19.0,16.0,-100.00,ENE,67,8.0,-999.0,87,-99.99,,,-99.99,0.000000,,2013-02-22 04:52:00,